Time;durP1;ratioP1;P1;durP2;ratioP2;P2;SDS_P1;SDS_P2;PMS_P1;PMS_P2;Temp;Humidity;BMP_temperature;BMP_pressure;BME280_temperature;BME280_humidity;BME280_pressure;Samples;Min_cycle;Max_cycle;Signal;HPM_P1;HPM_P2
2022/07/10 00:01:18;;;;;;;3.13;2.65;;;19.10;92.50;;;;;;5081422;28;20161;-79
2022/07/10 00:03:44;;;;;;;3.78;2.70;;;19.10;92.40;;;;;;5073695;28;20028;-79
2022/07/10 00:06:09;;;;;;;3.45;2.40;;;19.10;92.50;;;;;;5066902;28;20035;-79
2022/07/10 00:08:35;;;;;;;5.32;2.97;;;19.10;92.50;;;;;;5072740;28;20056;-78
2022/07/10 00:11:01;;;;;;;4.90;2.63;;;19.10;92.60;;;;;;5076587;28;20020;-79
2022/07/10 00:13:26;;;;;;;3.83;2.50;;;19.00;92.60;;;;;;5077197;28;20711;-80
2022/07/10 00:15:52;;;;;;;5.82;2.90;;;19.00;92.60;;;;;;5078419;28;20059;-80
2022/07/10 00:18:18;;;;;;;6.45;2.95;;;19.00;92.60;;;;;;5076973;28;20020;-79
2022/07/10 00:20:43;;;;;;;4.28;3.10;;;19.00;92.60;;;;;;5054092;28;20042;-79
2022/07/10 00:23:09;;;;;;;5.00;3.15;;;19.00;92.70;;;;;;5076440;28;20044;-79
2022/07/10 00:25:34;;;;;;;5.95;3.17;;;19.00;92.70;;;;;;5055148;28;20092;-79
2022/07/10 00:28:00;;;;;;;3.20;2.90;;;19.00;92.70;;;;;;5084368;28;20043;-79
2022/07/10 00:30:26;;;;;;;3.47;2.85;;;19.00;92.80;;;;;;5073614;28;20020;-78
2022/07/10 00:32:52;;;;;;;4.05;3.00;;;19.00;92.80;;;;;;5076712;28;20021;-79
2022/07/10 00:35:17;;;;;;;5.57;2.75;;;19.00;92.90;;;;;;5057335;28;20071;-79
2022/07/10 00:37:43;;;;;;;4.63;2.70;;;19.00;92.90;;;;;;5073345;28;20490;-80
2022/07/10 00:40:09;;;;;;;3.35;2.88;;;19.00;93.00;;;;;;5070350;28;20037;-79
2022/07/10 00:42:34;;;;;;;5.00;3.05;;;19.00;93.00;;;;;;5057481;28;20496;-79
2022/07/10 00:45:00;;;;;;;3.85;2.92;;;18.90;93.00;;;;;;5069801;28;20086;-80
2022/07/10 00:47:26;;;;;;;8.20;3.45;;;18.90;93.10;;;;;;5056073;28;20032;-80
2022/07/10 00:49:51;;;;;;;3.92;3.50;;;18.90;93.10;;;;;;5072646;28;20145;-79
2022/07/10 00:52:18;;;;;;;6.50;3.25;;;18.90;93.10;;;;;;5059976;28;20477;-80
2022/07/10 00:54:45;;;;;;;5.63;3.63;;;18.90;93.10;;;;;;5076436;28;20040;-79
2022/07/10 00:57:14;;;;;;;4.45;3.20;;;18.80;93.20;;;;;;5086232;28;20035;-80
2022/07/10 00:59:40;;;;;;;4.30;3.10;;;18.90;93.20;;;;;;5082749;28;20031;-78
2022/07/10 01:02:06;;;;;;;6.18;3.53;;;18.80;93.20;;;;;;5075875;28;20099;-79
2022/07/10 01:04:32;;;;;;;7.47;3.42;;;18.80;93.30;;;;;;5074472;28;20056;-80
2022/07/10 01:06:58;;;;;;;7.43;3.50;;;18.80;93.40;;;;;;5082319;28;20052;-80
2022/07/10 01:09:24;;;;;;;6.05;3.35;;;18.80;93.40;;;;;;5080517;28;20031;-79
2022/07/10 01:11:50;;;;;;;4.80;3.40;;;18.80;93.50;;;;;;5072605;28;20147;-79
2022/07/10 01:14:16;;;;;;;9.57;3.63;;;18.80;93.60;;;;;;5076658;28;20017;-79
2022/07/10 01:16:42;;;;;;;6.53;2.88;;;18.70;93.60;;;;;;5079936;28;20025;-80
2022/07/10 01:19:08;;;;;;;4.63;3.13;;;18.70;93.70;;;;;;5078390;28;20020;-79
2022/07/10 01:21:36;;;;;;;5.38;3.20;;;18.70;93.70;;;;;;5076418;28;20131;-80
2022/07/10 01:24:08;;;;;;;10.32;3.42;;;18.60;94.00;;;;;;5082567;28;20423;-79
2022/07/10 01:26:34;;;;;;;6.20;3.45;;;18.60;93.80;;;;;;5081084;28;20025;-80
2022/07/10 01:29:04;;;;;;;9.38;3.45;;;18.60;93.80;;;;;;5092318;22;20292;-75
2022/07/10 01:31:29;;;;;;;3.65;2.97;;;18.60;93.90;;;;;;5064857;28;21251;-75
2022/07/10 01:33:56;;;;;;;3.75;2.90;;;18.60;93.90;;;;;;5068058;28;20117;-75
2022/07/10 01:36:22;;;;;;;3.70;2.83;;;18.60;93.90;;;;;;5071774;28;20028;-75
2022/07/10 01:38:51;;;;;;;4.75;3.25;;;18.50;93.90;;;;;;5069683;28;20021;-74
2022/07/10 01:41:17;;;;;;;4.55;3.42;;;18.60;93.90;;;;;;5048848;28;20029;-74
2022/07/10 01:43:44;;;;;;;7.10;3.20;;;18.50;93.80;;;;;;5053628;28;20097;-76
2022/07/10 01:46:11;;;;;;;4.55;3.35;;;18.50;93.80;;;;;;5019534;28;20026;-74
2022/07/10 01:48:38;;;;;;;5.78;3.60;;;18.50;93.80;;;;;;5056760;28;20033;-75
2022/07/10 01:51:04;;;;;;;5.45;3.25;;;18.50;93.90;;;;;;5055267;28;20028;-75
2022/07/10 01:53:29;;;;;;;5.03;2.90;;;18.50;93.80;;;;;;5046569;28;20160;-74
2022/07/10 01:55:55;;;;;;;6.72;3.03;;;18.50;93.80;;;;;;5037702;28;20108;-74
2022/07/10 01:58:21;;;;;;;5.15;3.10;;;18.50;93.80;;;;;;5033141;28;20123;-74
2022/07/10 02:00:47;;;;;;;5.60;3.22;;;18.50;93.90;;;;;;5058229;28;20050;-75
2022/07/10 02:05:56;;;;;;;;;;;18.40;93.90;;;;;;5056021;28;20480;-76
2022/07/10 02:08:22;;;;;;;4.50;3.25;;;18.40;93.90;;;;;;5028672;28;19909;-75
2022/07/10 02:10:48;;;;;;;4.55;3.25;;;18.40;93.90;;;;;;5049659;28;20040;-75
2022/07/10 02:13:14;;;;;;;4.30;3.53;;;18.40;93.90;;;;;;5026149;28;20021;-75
2022/07/10 02:15:41;;;;;;;4.28;3.05;;;18.40;94.00;;;;;;5042465;28;20112;-75
2022/07/10 02:18:07;;;;;;;5.40;3.40;;;18.30;94.10;;;;;;5048954;28;20557;-74
2022/07/10 02:20:34;;;;;;;3.63;2.70;;;18.30;94.20;;;;;;5052200;28;20103;-74
2022/07/10 02:23:00;;;;;;;4.45;3.08;;;18.30;94.20;;;;;;5035840;28;20511;-75
2022/07/10 02:25:26;;;;;;;5.00;3.35;;;18.30;94.30;;;;;;5047639;28;20151;-74
2022/07/10 02:27:52;;;;;;;4.03;2.85;;;18.30;94.30;;;;;;5034698;28;20157;-74
2022/07/10 02:30:17;;;;;;;5.00;3.45;;;18.20;94.40;;;;;;5051280;28;20034;-74
2022/07/10 02:32:43;;;;;;;8.25;3.83;;;18.20;94.70;;;;;;5051048;28;20075;-74
2022/07/10 02:35:09;;;;;;;9.05;3.47;;;18.10;94.80;;;;;;5047254;28;20018;-75
2022/07/10 02:37:34;;;;;;;5.50;3.80;;;18.10;95.10;;;;;;5054186;28;20162;-75
2022/07/10 02:40:00;;;;;;;4.25;3.28;;;18.10;95.20;;;;;;5026986;28;20028;-75
2022/07/10 02:42:25;;;;;;;6.35;3.20;;;18.00;95.30;;;;;;5049880;28;20025;-74
2022/07/10 02:44:51;;;;;;;6.53;3.20;;;18.00;95.40;;;;;;5049893;28;20043;-74
2022/07/10 02:47:17;;;;;;;3.15;2.85;;;17.90;95.50;;;;;;5046535;28;20052;-74
2022/07/10 02:49:43;;;;;;;5.05;3.50;;;17.90;95.60;;;;;;5052436;28;20055;-74
2022/07/10 02:52:09;;;;;;;4.82;3.47;;;17.80;95.70;;;;;;5053911;28;20079;-74
2022/07/10 02:54:34;;;;;;;6.00;3.50;;;17.80;95.90;;;;;;5059787;28;20017;-74
2022/07/10 02:57:00;;;;;;;6.28;3.60;;;17.80;95.90;;;;;;5064420;28;20056;-74
2022/07/10 02:59:26;;;;;;;5.20;3.17;;;17.70;95.90;;;;;;5053016;28;20041;-74
2022/07/10 03:01:52;;;;;;;5.57;3.35;;;17.70;96.00;;;;;;5061068;28;20108;-74
2022/07/10 03:04:17;;;;;;;5.95;3.20;;;17.70;96.10;;;;;;5044228;28;20028;-74
2022/07/10 03:06:43;;;;;;;4.43;3.13;;;17.70;95.90;;;;;;5055243;28;20497;-74
2022/07/10 03:09:09;;;;;;;5.10;3.05;;;17.70;95.80;;;;;;5055979;28;20028;-74
2022/07/10 03:11:34;;;;;;;9.65;3.90;;;17.70;95.80;;;;;;5045607;28;20469;-74
2022/07/10 03:14:00;;;;;;;5.32;3.97;;;17.70;95.80;;;;;;5036211;28;20055;-74
2022/07/10 03:16:26;;;;;;;5.47;3.53;;;17.60;95.70;;;;;;5053827;28;20045;-75
2022/07/10 03:18:52;;;;;;;5.05;3.78;;;17.60;95.70;;;;;;5059675;28;20060;-75
2022/07/10 03:21:17;;;;;;;8.40;4.65;;;17.60;95.80;;;;;;5045628;28;20381;-74
2022/07/10 03:23:43;;;;;;;7.63;4.95;;;17.60;96.00;;;;;;5050535;28;20066;-74
2022/07/10 03:26:08;;;;;;;7.25;5.00;;;17.50;96.10;;;;;;5049625;28;20074;-75
2022/07/10 03:28:34;;;;;;;9.20;5.25;;;17.50;96.30;;;;;;5056893;28;20401;-75
2022/07/10 03:31:00;;;;;;;8.05;5.20;;;17.50;96.50;;;;;;5032182;28;20032;-75
2022/07/10 03:33:25;;;;;;;7.65;4.55;;;17.50;96.70;;;;;;5058612;28;20421;-75
2022/07/10 03:35:51;;;;;;;8.63;6.35;;;17.40;96.70;;;;;;5042101;28;20445;-75
2022/07/10 03:38:20;;;;;;;6.93;5.25;;;17.40;97.10;;;;;;5038441;28;20056;-75
2022/07/10 03:40:47;;;;;;;6.90;5.70;;;17.40;97.20;;;;;;5061571;28;20523;-74
2022/07/10 03:43:14;;;;;;;10.10;6.07;;;17.40;97.50;;;;;;5043197;28;20631;-74
2022/07/10 03:45:39;;;;;;;6.40;5.65;;;17.30;97.80;;;;;;5050593;28;20028;-75
2022/07/10 03:48:05;;;;;;;8.75;5.90;;;17.20;98.10;;;;;;5047668;28;20075;-74
2022/07/10 03:50:31;;;;;;;8.15;6.65;;;17.20;98.50;;;;;;5039490;28;20043;-74
2022/07/10 03:52:56;;;;;;;7.50;6.22;;;17.10;98.80;;;;;;5043761;28;20029;-75
2022/07/10 03:55:22;;;;;;;7.78;6.93;;;17.00;99.10;;;;;;5047900;28;20923;-74
2022/07/10 03:57:53;;;;;;;7.13;5.78;;;17.00;99.40;;;;;;5045063;28;20030;-74
2022/07/10 04:00:24;;;;;;;8.57;7.32;;;17.00;99.60;;;;;;5039825;28;20033;-75
2022/07/10 04:03:04;;;;;;;8.98;7.05;;;17.00;99.90;;;;;;5047161;28;20705;-74
2022/07/10 04:05:30;;;;;;;10.73;8.07;;;17.00;99.90;;;;;;5045232;28;20025;-74
2022/07/10 04:07:56;;;;;;;10.77;7.85;;;17.00;99.90;;;;;;5049286;28;20061;-74
2022/07/10 04:10:23;;;;;;;9.52;7.22;;;17.00;99.90;;;;;;5035266;28;20037;-74
2022/07/10 04:12:48;;;;;;;10.43;8.68;;;17.00;99.90;;;;;;5055044;28;20028;-74
2022/07/10 04:15:15;;;;;;;11.93;8.73;;;16.90;99.90;;;;;;5040707;28;20017;-74
2022/07/10 04:17:40;;;;;;;11.82;8.82;;;17.00;99.90;;;;;;5054509;28;20025;-74
2022/07/10 04:20:06;;;;;;;11.82;9.13;;;17.00;99.90;;;;;;5031651;28;20083;-74
2022/07/10 04:22:32;;;;;;;13.15;9.40;;;16.90;99.90;;;;;;5035483;28;20031;-74
2022/07/10 04:24:58;;;;;;;10.35;8.18;;;16.90;99.90;;;;;;5050572;28;20029;-74
2022/07/10 04:27:24;;;;;;;12.60;9.40;;;16.90;99.90;;;;;;5049484;28;20159;-74
2022/07/10 04:29:49;;;;;;;16.50;8.40;;;16.90;99.90;;;;;;5053846;28;20029;-74
2022/07/10 04:32:16;;;;;;;11.55;8.93;;;16.90;99.90;;;;;;5038771;28;20021;-73
2022/07/10 04:34:42;;;;;;;14.23;9.00;;;16.90;99.90;;;;;;5031826;28;20024;-74
2022/07/10 04:37:08;;;;;;;12.10;8.60;;;16.90;99.90;;;;;;5026303;28;20028;-74
2022/07/10 04:39:35;;;;;;;12.05;8.80;;;16.90;99.90;;;;;;5041769;28;20028;-74
2022/07/10 04:42:01;;;;;;;13.63;7.78;;;17.00;99.90;;;;;;5044528;28;20500;-74
2022/07/10 04:44:27;;;;;;;12.80;8.68;;;16.90;99.90;;;;;;5034978;28;20166;-74
2022/07/10 04:46:53;;;;;;;12.70;8.85;;;17.00;99.90;;;;;;5039063;28;20152;-74
2022/07/10 04:49:19;;;;;;;12.50;8.75;;;17.00;99.90;;;;;;5055697;28;20025;-73
2022/07/10 04:51:45;;;;;;;12.52;8.57;;;17.00;99.90;;;;;;5042362;28;20392;-74
2022/07/10 04:54:10;;;;;;;14.75;8.07;;;16.90;99.90;;;;;;5048740;28;20438;-73
2022/07/10 04:56:36;;;;;;;10.68;8.75;;;16.90;99.90;;;;;;5041002;28;20031;-73
2022/07/10 04:59:02;;;;;;;11.20;8.02;;;16.80;99.90;;;;;;5048419;28;20025;-73
2022/07/10 05:01:27;;;;;;;13.55;8.15;;;16.80;99.90;;;;;;5046963;28;20037;-73
2022/07/10 05:03:53;;;;;;;11.23;8.35;;;16.80;99.90;;;;;;5050609;28;20500;-73
2022/07/10 05:06:19;;;;;;;8.93;7.00;;;16.80;99.90;;;;;;5032739;28;20084;-73
2022/07/10 05:08:44;;;;;;;9.45;7.63;;;16.80;99.90;;;;;;5048857;28;20021;-74
2022/07/10 05:11:10;;;;;;;10.80;7.65;;;16.70;99.90;;;;;;5042523;28;20067;-73
2022/07/10 05:13:37;;;;;;;10.75;7.28;;;16.80;99.90;;;;;;5051594;28;20045;-73
2022/07/10 05:16:03;;;;;;;8.65;6.50;;;16.80;99.90;;;;;;5044635;28;20060;-74
2022/07/10 05:18:29;;;;;;;8.52;6.78;;;16.80;99.90;;;;;;5043284;28;20026;-73
2022/07/10 05:20:55;;;;;;;12.13;7.05;;;16.90;99.90;;;;;;5051545;28;20039;-74
2022/07/10 05:23:20;;;;;;;10.50;6.90;;;16.90;99.90;;;;;;5026914;28;20032;-74
2022/07/10 05:25:46;;;;;;;8.23;5.68;;;16.80;99.90;;;;;;5041690;28;20021;-74
2022/07/10 05:28:15;;;;;;;9.95;6.10;;;16.90;99.90;;;;;;5039686;28;20025;-74
2022/07/10 05:30:41;;;;;;;8.18;5.85;;;16.90;99.90;;;;;;5051542;28;20033;-74
2022/07/10 05:33:07;;;;;;;7.35;6.18;;;16.90;99.90;;;;;;5043318;28;20033;-74
2022/07/10 05:35:33;;;;;;;8.43;5.43;;;17.00;99.90;;;;;;5040870;28;20040;-75
2022/07/10 05:37:59;;;;;;;8.18;6.05;;;17.00;99.90;;;;;;5023510;28;20435;-74
2022/07/10 05:40:24;;;;;;;9.15;5.68;;;16.90;99.90;;;;;;5043467;28;20047;-75
2022/07/10 05:42:50;;;;;;;8.57;5.75;;;16.90;99.90;;;;;;5045888;28;20056;-74
2022/07/10 05:45:17;;;;;;;7.90;5.00;;;16.90;99.90;;;;;;5043888;28;20059;-74
2022/07/10 05:47:42;;;;;;;8.18;5.30;;;16.90;99.90;;;;;;5045523;28;20090;-74
2022/07/10 05:50:08;;;;;;;8.50;5.85;;;16.90;99.90;;;;;;5037732;28;20038;-74
2022/07/10 05:52:34;;;;;;;7.93;4.82;;;16.90;99.90;;;;;;5045455;28;20378;-75
2022/07/10 05:54:59;;;;;;;8.23;5.15;;;16.90;99.90;;;;;;5044340;28;20169;-74
2022/07/10 05:57:25;;;;;;;8.60;5.68;;;16.80;99.90;;;;;;5050300;28;20097;-74
2022/07/10 05:59:51;;;;;;;7.55;4.35;;;16.80;99.90;;;;;;5033724;28;20044;-68
2022/07/10 06:02:16;;;;;;;5.38;4.07;;;16.80;99.90;;;;;;5030251;28;20025;-68
2022/07/10 06:04:42;;;;;;;7.45;5.13;;;16.90;99.90;;;;;;5039491;28;20384;-68
2022/07/10 06:07:08;;;;;;;6.78;4.57;;;16.90;99.90;;;;;;5038388;28;20098;-68
2022/07/10 06:09:34;;;;;;;7.80;4.78;;;16.90;99.90;;;;;;5047165;28;20064;-69
2022/07/10 06:12:00;;;;;;;6.43;4.78;;;16.90;99.90;;;;;;5041254;28;20096;-69
2022/07/10 06:14:26;;;;;;;8.07;4.32;;;16.90;99.90;;;;;;5033390;28;20121;-68
2022/07/10 06:16:52;;;;;;;11.27;3.95;;;16.90;99.90;;;;;;5048929;28;20057;-67
2022/07/10 06:19:18;;;;;;;6.97;4.25;;;16.90;99.90;;;;;;5026012;28;20143;-67
2022/07/10 06:21:44;;;;;;;6.57;3.78;;;16.80;99.90;;;;;;5042975;28;20417;-67
2022/07/10 06:24:10;;;;;;;9.40;4.20;;;16.90;99.90;;;;;;5022318;28;20033;-68
2022/07/10 06:26:35;;;;;;;4.85;2.95;;;17.00;99.90;;;;;;5043519;28;20530;-68
2022/07/10 06:29:01;;;;;;;5.47;3.40;;;17.00;99.90;;;;;;5046073;28;20029;-67
2022/07/10 06:31:27;;;;;;;5.18;3.03;;;17.00;99.90;;;;;;5045958;28;20059;-68
2022/07/10 06:33:52;;;;;;;4.28;2.58;;;17.00;99.90;;;;;;5029073;28;20085;-73
2022/07/10 06:36:18;;;;;;;4.47;2.83;;;17.00;99.90;;;;;;5049835;28;20079;-74
2022/07/10 06:38:44;;;;;;;8.30;3.58;;;17.00;99.90;;;;;;5049064;28;20033;-74
2022/07/10 06:41:09;;;;;;;7.05;2.97;;;17.00;99.90;;;;;;5030530;28;20032;-73
2022/07/10 06:43:35;;;;;;;8.55;3.47;;;16.90;99.90;;;;;;5045276;28;20576;-74
2022/07/10 06:46:01;;;;;;;5.35;3.15;;;16.80;99.90;;;;;;5042284;28;20017;-74
2022/07/10 06:48:27;;;;;;;7.10;2.88;;;16.90;99.90;;;;;;5043450;28;20030;-73
2022/07/10 06:50:53;;;;;;;4.68;3.13;;;16.80;99.90;;;;;;5048253;28;20029;-74
2022/07/10 06:53:23;;;;;;;8.43;4.07;;;17.00;99.90;;;;;;5043708;28;20025;-74
2022/07/10 06:55:50;;;;;;;5.07;2.75;;;17.20;99.90;;;;;;5025778;28;20032;-74
2022/07/10 06:58:16;;;;;;;4.80;2.33;;;17.40;99.90;;;;;;5032203;28;20036;-75
2022/07/10 07:00:42;;;;;;;4.05;2.17;;;17.60;98.90;;;;;;5031812;28;20025;-75
2022/07/10 07:03:08;;;;;;;5.95;2.55;;;17.70;97.50;;;;;;5040476;28;20044;-68
2022/07/10 07:05:33;;;;;;;5.65;1.85;;;17.70;97.10;;;;;;5045604;28;20389;-69
2022/07/10 07:07:59;;;;;;;4.05;2.35;;;17.80;97.10;;;;;;5045491;28;20549;-69
2022/07/10 07:10:25;;;;;;;5.47;2.55;;;17.80;97.20;;;;;;5052498;28;20056;-68
2022/07/10 07:12:50;;;;;;;5.97;2.53;;;17.80;96.60;;;;;;5037115;28;20092;-72
2022/07/10 07:15:16;;;;;;;3.83;2.13;;;17.80;96.10;;;;;;5044833;28;20385;-74
2022/07/10 07:17:56;;;;;;;4.95;2.05;;;17.80;96.20;;;;;;5031507;28;20018;-75
2022/07/10 07:23:10;;;;;;;9.02;2.30;;;17.80;95.20;;;;;;5031377;28;20126;-73
2022/07/10 07:25:41;;;;;;;6.00;2.20;;;17.80;95.00;;;;;;5013510;28;20033;-74
2022/07/10 07:28:09;;;;;;;4.88;2.40;;;17.70;94.70;;;;;;5031466;28;20429;-74
2022/07/10 07:30:35;;;;;;;6.05;2.20;;;17.70;94.90;;;;;;5071942;22;20055;-81
2022/07/10 07:33:01;;;;;;;4.05;1.40;;;17.70;95.00;;;;;;5085917;28;20028;-81
2022/07/10 07:35:26;;;;;;;4.28;1.85;;;17.60;94.60;;;;;;5083816;28;20028;-78
2022/07/10 07:37:52;;;;;;;4.57;1.65;;;17.60;94.50;;;;;;5086624;28;20024;-81
2022/07/10 07:40:23;;;;;;;7.05;1.92;;;17.60;94.30;;;;;;5087193;28;20104;-80
2022/07/10 07:42:58;;;;;;;4.55;2.38;;;17.60;94.40;;;;;;5084387;28;20028;-81
2022/07/10 07:45:25;;;;;;;4.85;2.03;;;17.80;94.40;;;;;;5101754;27;20025;-80
2022/07/10 07:47:53;;;;;;;3.28;1.67;;;18.00;94.40;;;;;;5086166;28;20105;-81
2022/07/10 07:50:26;;;;;;;4.28;1.67;;;17.90;94.10;;;;;;5089443;28;20028;-81
2022/07/10 07:52:52;;;;;;;3.88;1.50;;;17.90;94.20;;;;;;5087008;28;20034;-81
2022/07/10 07:55:19;;;;;;;3.30;1.90;;;18.00;94.20;;;;;;5096104;28;20032;-82
2022/07/10 07:57:45;;;;;;;4.22;1.25;;;18.00;94.40;;;;;;5094886;28;20395;-82
2022/07/10 08:00:12;;;;;;;4.53;1.60;;;17.90;94.10;;;;;;5104277;27;20024;-81
2022/07/10 08:02:38;;;;;;;5.82;2.08;;;18.00;94.00;;;;;;5084881;28;20038;-81
2022/07/10 08:05:05;;;;;;;6.30;1.73;;;18.10;94.20;;;;;;5088452;28;20020;-82
2022/07/10 08:07:41;;;;;;;3.20;1.58;;;18.10;94.00;;;;;;5091082;28;20172;-84
2022/07/10 08:10:11;;;;;;;5.15;1.75;;;17.90;93.30;;;;;;5090450;28;20016;-83
2022/07/10 08:12:38;;;;;;;4.50;2.08;;;17.90;93.40;;;;;;5086927;28;20035;-83
2022/07/10 08:15:08;;;;;;;5.97;1.90;;;17.80;93.20;;;;;;5087016;28;20031;-83
2022/07/10 08:17:34;;;;;;;6.95;1.48;;;17.90;93.60;;;;;;5086200;28;20099;-83
2022/07/10 08:20:12;;;;;;;3.20;1.90;;;18.00;93.70;;;;;;5087954;28;20162;-84
2022/07/10 08:22:41;;;;;;;5.57;1.60;;;17.90;93.50;;;;;;5084196;28;20044;-84
2022/07/10 08:25:07;;;;;;;5.15;2.17;;;17.90;93.80;;;;;;5079274;28;20024;-82
2022/07/10 08:27:33;;;;;;;5.25;1.85;;;18.00;93.70;;;;;;5089468;28;20492;-82
2022/07/10 08:30:00;;;;;;;5.40;1.73;;;18.00;93.60;;;;;;5091128;28;20039;-82
2022/07/10 08:32:27;;;;;;;2.92;1.48;;;18.10;93.20;;;;;;5084691;22;20339;-86
2022/07/10 08:34:53;;;;;;;7.35;1.95;;;18.20;92.90;;;;;;5073147;28;20032;-83
2022/07/10 08:37:21;;;;;;;6.13;1.80;;;18.20;92.60;;;;;;5074668;28;20017;-83
2022/07/10 08:39:47;;;;;;;5.28;1.63;;;18.40;92.40;;;;;;5076623;28;20499;-83
2022/07/10 08:42:15;;;;;;;3.78;1.20;;;18.50;92.20;;;;;;5078094;28;20092;-90
2022/07/10 08:44:45;;;;;;;6.97;1.75;;;18.70;92.10;;;;;;5067781;28;20028;-92
2022/07/10 08:47:14;;;;;;;5.55;1.67;;;18.70;91.50;;;;;;5090961;28;20025;-94
2022/07/10 08:49:54;;;;;;;4.13;1.55;;;18.70;91.40;;;;;;5067241;28;20149;-93
2022/07/10 08:53:01;;;;;;;6.50;1.88;;;18.80;91.40;;;;;;5071281;28;20040;-90
2022/07/10 08:55:30;;;;;;;3.58;1.63;;;19.10;91.50;;;;;;4999382;28;20030;-90
2022/07/10 08:57:58;;;;;;;3.15;1.25;;;19.20;91.10;;;;;;4991015;28;20038;-85
2022/07/10 09:00:24;;;;;;;2.85;1.55;;;19.30;90.60;;;;;;5040576;28;21478;-82
2022/07/10 09:02:50;;;;;;;6.47;1.52;;;19.40;89.90;;;;;;5074862;28;20028;-88
2022/07/10 09:05:16;;;;;;;5.95;1.83;;;19.30;89.50;;;;;;5054980;28;20746;-88
2022/07/10 09:07:45;;;;;;;2.00;1.48;;;19.30;88.00;;;;;;5052564;28;20059;-85
2022/07/10 09:10:11;;;;;;;3.78;1.73;;;19.10;88.60;;;;;;5069938;28;20427;-89
2022/07/10 09:12:59;;;;;;;1.90;1.38;;;19.10;89.10;;;;;;4998294;28;20083;-85
2022/07/10 09:15:29;;;;;;;5.47;1.77;;;19.00;89.00;;;;;;5066662;28;20123;-84
2022/07/10 09:18:01;;;;;;;4.40;1.80;;;19.00;88.90;;;;;;5048752;28;20025;-85
2022/07/10 09:20:31;;;;;;;3.70;1.70;;;19.00;89.20;;;;;;5056131;28;20039;-83
2022/07/10 09:22:59;;;;;;;5.72;2.00;;;19.00;89.70;;;;;;5069442;28;20029;-85
2022/07/10 09:25:34;;;;;;;5.60;1.80;;;18.90;89.60;;;;;;5050009;28;20029;-85
2022/07/10 09:28:05;;;;;;;3.92;1.90;;;19.00;90.10;;;;;;5056847;28;20361;-90
2022/07/10 09:30:35;;;;;;;5.53;1.98;;;19.00;89.60;;;;;;5076536;28;20024;-92
2022/07/10 09:33:30;;;;;;;3.95;2.03;;;19.10;89.00;;;;;;5057294;28;20093;-89
2022/07/10 09:36:18;;;;;;;5.43;1.75;;;19.20;88.50;;;;;;5073354;28;20024;-92
2022/07/10 09:38:44;;;;;;;2.65;1.77;;;19.30;87.80;;;;;;5081277;28;20119;-87
2022/07/10 09:41:25;;;;;;;4.82;1.67;;;19.40;87.20;;;;;;5060551;28;20044;-94
2022/07/10 09:44:02;;;;;;;4.30;1.77;;;19.40;87.30;;;;;;5055048;28;20036;-84
2022/07/10 09:46:36;;;;;;;5.65;1.75;;;19.40;87.40;;;;;;5050345;28;20070;-84
2022/07/10 09:49:11;;;;;;;3.83;1.58;;;19.40;86.80;;;;;;5055908;28;20063;-89
2022/07/10 09:51:39;;;;;;;4.00;1.38;;;19.30;85.10;;;;;;5050849;28;20492;-84
2022/07/10 09:54:07;;;;;;;3.03;1.35;;;19.30;84.30;;;;;;5067948;28;20496;-88
2022/07/10 09:56:47;;;;;;;5.57;1.48;;;19.50;84.10;;;;;;5048611;28;20039;-82
2022/07/10 09:59:17;;;;;;;3.13;1.65;;;19.60;82.30;;;;;;5066547;28;20176;-85
2022/07/10 10:01:51;;;;;;;5.00;1.85;;;19.80;81.50;;;;;;5056806;28;20032;-89
2022/07/10 10:04:28;;;;;;;4.55;1.80;;;19.80;80.30;;;;;;5058917;28;20020;-89
2022/07/10 10:07:10;;;;;;;6.13;2.00;;;19.80;80.20;;;;;;5057845;28;20029;-92
2022/07/10 10:09:58;;;;;;;5.13;1.67;;;19.80;80.40;;;;;;5073673;28;20392;-96
2022/07/10 10:12:48;;;;;;;3.85;1.50;;;19.60;79.90;;;;;;5058982;28;20033;-91
2022/07/10 10:15:15;;;;;;;4.95;1.83;;;19.50;80.30;;;;;;5058478;28;20485;-91
2022/07/10 10:17:47;;;;;;;4.32;1.30;;;19.60;80.90;;;;;;5064919;28;20035;-92
2022/07/10 10:23:01;;;;;;;2.95;1.45;;;19.70;80.00;;;;;;5085942;28;20069;-91
2022/07/10 10:25:31;;;;;;;3.42;1.67;;;19.70;80.30;;;;;;5069100;28;20028;-91
2022/07/10 10:27:59;;;;;;;3.80;1.67;;;19.70;80.00;;;;;;5062932;28;20086;-91
2022/07/10 10:30:28;;;;;;;3.78;1.67;;;19.80;79.90;;;;;;5067522;28;20028;-89
2022/07/10 10:32:54;;;;;;;1.90;1.23;;;19.80;79.50;;;;;;5061245;28;20038;-89
2022/07/10 10:35:47;;;;;;;7.85;2.28;;;19.80;79.70;;;;;;5076526;28;20511;-91
2022/07/10 10:38:16;;;;;;;4.85;1.60;;;19.80;79.80;;;;;;5068240;28;20084;-91
2022/07/10 10:40:42;;;;;;;3.08;1.85;;;19.80;79.90;;;;;;5063699;28;20025;-91
2022/07/10 10:43:22;;;;;;;3.20;1.50;;;19.70;79.30;;;;;;5067889;28;20111;-90
2022/07/10 10:45:49;;;;;;;4.68;1.60;;;19.80;78.90;;;;;;5067477;28;20047;-91
2022/07/10 10:48:17;;;;;;;4.03;1.35;;;19.80;78.30;;;;;;5060845;28;20024;-92
2022/07/10 10:50:52;;;;;;;3.70;1.30;;;19.80;77.60;;;;;;5058668;28;20036;-92
2022/07/10 10:53:29;;;;;;;2.83;1.52;;;19.70;77.00;;;;;;5055762;28;20021;-92
2022/07/10 10:56:03;;;;;;;2.78;1.30;;;19.80;76.80;;;;;;5060825;28;20021;-92
2022/07/10 10:58:48;;;;;;;2.22;1.33;;;19.80;76.50;;;;;;5060834;28;20044;-93
2022/07/10 11:01:20;;;;;;;5.68;2.15;;;19.90;76.60;;;;;;5060290;28;20030;-90
2022/07/10 11:04:04;;;;;;;1.98;1.10;;;19.80;77.00;;;;;;5081347;28;20232;-90
2022/07/10 11:06:50;;;;;;;2.80;1.27;;;19.70;75.80;;;;;;5059300;28;20115;-91
2022/07/10 11:09:31;;;;;;;3.75;1.20;;;19.70;75.70;;;;;;5059653;28;20028;-89
2022/07/10 11:12:08;;;;;;;2.13;1.20;;;19.60;74.80;;;;;;5055889;28;20021;-90
2022/07/10 11:14:52;;;;;;;2.97;1.30;;;19.60;75.00;;;;;;5083001;28;20029;-91
2022/07/10 11:17:18;;;;;;;5.50;1.52;;;19.60;75.50;;;;;;5083119;28;20031;-90
2022/07/10 11:19:46;;;;;;;5.13;1.73;;;19.60;76.50;;;;;;5065399;28;20028;-91
2022/07/10 11:22:39;;;;;;;4.78;1.52;;;19.50;76.70;;;;;;5083243;28;20028;-90
2022/07/10 11:25:28;;;;;;;1.48;1.10;;;19.50;76.60;;;;;;5059838;28;20025;-91
2022/07/10 11:28:11;;;;;;;3.85;1.10;;;19.50;76.70;;;;;;5065616;28;20036;-89
2022/07/10 11:30:54;;;;;;;2.92;1.27;;;19.70;76.70;;;;;;5077893;28;20064;-91
2022/07/10 11:33:20;;;;;;;1.70;1.33;;;19.70;75.70;;;;;;5084644;28;20469;-92
2022/07/10 11:35:51;;;;;;;2.58;1.60;;;19.80;76.00;;;;;;5067192;28;20032;-91
2022/07/10 11:38:26;;;;;;;2.03;1.10;;;19.80;74.90;;;;;;5059790;28;20391;-92
2022/07/10 11:40:54;;;;;;;3.13;1.27;;;19.80;74.60;;;;;;5067857;28;20152;-90
2022/07/10 11:43:23;;;;;;;2.03;1.00;;;19.80;74.90;;;;;;5069135;28;20488;-90
2022/07/10 11:45:50;;;;;;;3.45;1.50;;;19.80;75.20;;;;;;5076627;28;20032;-92
2022/07/10 11:48:21;;;;;;;4.38;1.63;;;19.90;75.40;;;;;;5068288;28;20031;-90
2022/07/10 11:50:47;;;;;;;2.83;0.90;;;20.10;75.60;;;;;;5081972;28;20480;-92
2022/07/10 11:53:13;;;;;;;3.10;1.67;;;20.20;75.30;;;;;;5069628;28;20028;-92
2022/07/10 11:55:40;;;;;;;2.70;1.63;;;20.30;75.30;;;;;;5087853;28;20051;-92
2022/07/10 11:58:34;;;;;;;3.25;1.50;;;20.40;75.10;;;;;;5065912;28;20029;-92
2022/07/10 12:01:09;;;;;;;5.18;1.92;;;20.50;74.90;;;;;;5064257;28;20093;-91
2022/07/10 12:03:34;;;;;;;3.17;1.40;;;20.50;75.30;;;;;;5072802;28;20024;-91
2022/07/10 12:06:06;;;;;;;2.38;1.30;;;20.60;75.10;;;;;;5066048;28;20094;-91
2022/07/10 12:08:43;;;;;;;2.60;1.30;;;20.40;73.60;;;;;;5066977;28;20035;-92
2022/07/10 12:11:14;;;;;;;2.72;1.70;;;20.30;73.80;;;;;;5070148;28;20053;-91
2022/07/10 12:13:40;;;;;;;2.67;1.20;;;20.30;73.80;;;;;;5064730;28;20040;-91
2022/07/10 12:16:06;;;;;;;5.88;1.65;;;20.20;73.40;;;;;;5068206;28;20031;-90
2022/07/10 12:18:33;;;;;;;5.40;2.45;;;20.20;73.90;;;;;;5064718;28;20487;-90
2022/07/10 12:20:59;;;;;;;6.05;1.50;;;20.10;74.90;;;;;;5073265;28;20025;-91
2022/07/10 12:23:25;;;;;;;4.63;1.85;;;20.00;74.80;;;;;;5087297;28;20032;-90
2022/07/10 12:25:51;;;;;;;4.00;1.45;;;20.00;74.70;;;;;;5065524;28;20036;-91
2022/07/10 12:28:17;;;;;;;3.97;1.98;;;20.00;74.60;;;;;;5083235;28;20035;-91
2022/07/10 12:30:49;;;;;;;2.03;1.20;;;20.10;74.70;;;;;;5070604;28;20033;-91
2022/07/10 12:33:17;;;;;;;3.92;1.23;;;20.10;74.60;;;;;;5059838;28;20039;-91
2022/07/10 12:35:58;;;;;;;3.42;1.20;;;20.20;74.20;;;;;;5067884;28;20111;-90
2022/07/10 12:38:27;;;;;;;2.92;1.35;;;20.30;74.10;;;;;;5065333;28;20029;-92
2022/07/10 12:41:13;;;;;;;1.50;1.17;;;20.40;73.80;;;;;;5063467;28;20024;-91
2022/07/10 12:43:40;;;;;;;2.90;1.25;;;20.40;71.80;;;;;;5083201;28;20085;-91
2022/07/10 12:46:21;;;;;;;3.08;1.40;;;20.40;70.60;;;;;;5062986;28;20069;-90
2022/07/10 12:49:07;;;;;;;2.10;1.08;;;20.50;70.80;;;;;;5064564;28;20503;-91
2022/07/10 12:51:50;;;;;;;3.05;1.13;;;20.50;70.80;;;;;;5087204;28;20056;-90
2022/07/10 12:54:35;;;;;;;3.10;1.50;;;20.40;70.90;;;;;;5072580;28;20028;-90
2022/07/10 12:57:04;;;;;;;4.93;1.75;;;20.40;73.80;;;;;;5060149;28;20492;-90
2022/07/10 12:59:36;;;;;;;3.45;1.33;;;20.30;73.00;;;;;;5068589;28;20024;-90
2022/07/10 13:02:37;;;;;;;3.75;1.17;;;20.30;72.60;;;;;;5066976;28;20035;-90